HPN weather

Nestle Heliport
Miguel Hidalgo, Ciudad de México, Mexico

Public forecast

Using degrees Celsius for public forecast. Weather courtesy of forecast.io.

Closest aviation weather report (METAR) to Nestle Heliport

Closest report is Licenciado Benito Juarez International Airport, 6.6 nm (12.2 km) E. Retrieved 2019/11/22 00:46 UTC (31 minutes ago):

MMMX 220046Z 36004KT 10SM FEW020 SCT200 22/06 A3027 NOSIG RMK 8/402 HZY ISOL AC

Closest aviation forecast (TAF) to Nestle Heliport

Closest forecast is Licenciado Benito Juarez International Airport, 6.6 nm (12.2 km) E. Retrieved 2019-11-22 00:08 UTC (1 hour ago):

TAF MMMX 212303Z 2200/2306 31005KT P6SM SCT025 BKN250 TX24/2221Z TN12/2212Z TEMPO 2200/2204 BKN020 FM220400 06005KT 5SM HZ SCT025 BKN250 TEMPO 2213/2217 3SM HZ FM221700 06005KT P6SM SCT020 BKN250 TEMPO 2223/2303 BKN020 FM230300 06005KT P6SM SCT020 BKN090 BKN250